Time;durP1;ratioP1;P1;durP2;ratioP2;P2;SDS_P1;SDS_P2;PMS_P1;PMS_P2;Temp;Humidity;BMP_temperature;BMP_pressure;BME280_temperature;BME280_humidity;BME280_pressure;Samples;Min_cycle;Max_cycle;Signal;HPM_P1;HPM_P2
2022/05/13 00:01:30;;;;;;;;;23.60;23.00;;;;;;;;5181724;28;8848;-71
2022/05/13 00:04:02;;;;;;;;;20.80;20.80;;;;;;;;5185835;28;8805;-71
2022/05/13 00:06:34;;;;;;;;;17.20;17.20;;;;;;;;5193474;28;9543;-71
2022/05/13 00:09:05;;;;;;;;;15.00;14.40;;;;;;;;5207366;28;8793;-71
2022/05/13 00:11:36;;;;;;;;;13.20;13.20;;;;;;;;5155422;28;8893;-71
2022/05/13 00:14:08;;;;;;;;;14.00;13.75;;;;;;;;5189716;28;8765;-71
2022/05/13 00:16:40;;;;;;;;;16.40;16.20;;;;;;;;5157447;28;9831;-71
2022/05/13 00:19:11;;;;;;;;;15.25;15.25;;;;;;;;5169232;28;8883;-71
2022/05/13 00:21:42;;;;;;;;;20.60;20.60;;;;;;;;5169160;28;11605;-71
2022/05/13 00:24:12;;;;;;;;;16.00;15.50;;;;;;;;5173574;28;8815;-72
2022/05/13 00:26:44;;;;;;;;;15.60;15.60;;;;;;;;5173012;28;8941;-71
2022/05/13 00:29:34;;;;;;;;;16.80;16.80;;;;;;;;5165290;28;8822;-71
2022/05/13 00:32:06;;;;;;;;;17.20;17.20;;;;;;;;5132866;28;8822;-71
2022/05/13 00:34:37;;;;;;;;;15.00;15.00;;;;;;;;5132803;28;8767;-71
2022/05/13 00:37:08;;;;;;;;;9.80;9.80;;;;;;;;5165594;28;8864;-71
2022/05/13 00:39:57;;;;;;;;;11.00;11.00;;;;;;;;5185340;28;8808;-72
2022/05/13 00:42:29;;;;;;;;;11.40;11.40;;;;;;;;5169094;28;8791;-72
2022/05/13 00:45:00;;;;;;;;;9.00;9.00;;;;;;;;5144547;28;8908;-72
2022/05/13 00:47:31;;;;;;;;;10.60;10.60;;;;;;;;5148521;28;8898;-71
2022/05/13 00:50:03;;;;;;;;;7.00;7.00;;;;;;;;5164926;28;8763;-72
2022/05/13 00:52:36;;;;;;;;;7.80;7.80;;;;;;;;5148540;28;8763;-71
2022/05/13 00:55:09;;;;;;;;;7.00;7.00;;;;;;;;5148381;28;8834;-71
2022/05/13 00:57:42;;;;;;;;;8.00;8.00;;;;;;;;5165046;28;9518;-71
2022/05/13 01:00:15;;;;;;;;;9.00;9.00;;;;;;;;5168171;28;8882;-71
2022/05/13 01:02:46;;;;;;;;;7.80;7.80;;;;;;;;5168572;28;8789;-71
2022/05/13 01:05:19;;;;;;;;;8.40;8.40;;;;;;;;5164105;28;8811;-72
2022/05/13 01:07:50;;;;;;;;;10.80;10.80;;;;;;;;5165749;28;8834;-71
2022/05/13 01:10:41;;;;;;;;;7.80;7.80;;;;;;;;5134420;28;8775;-71
2022/05/13 01:13:20;;;;;;;;;8.20;8.20;;;;;;;;5160593;28;8783;-71
2022/05/13 01:15:51;;;;;;;;;10.80;10.80;;;;;;;;5131986;28;8784;-71
2022/05/13 01:18:43;;;;;;;;;13.20;13.20;;;;;;;;5133995;28;8775;-71
2022/05/13 01:21:19;;;;;;;;;9.80;9.80;;;;;;;;5164174;28;8803;-71
2022/05/13 01:23:52;;;;;;;;;10.80;10.80;;;;;;;;5149083;28;8808;-72
2022/05/13 01:26:29;;;;;;;;;9.40;9.40;;;;;;;;5147654;28;8783;-71
2022/05/13 01:29:02;;;;;;;;;8.40;8.40;;;;;;;;5168027;28;8809;-71
2022/05/13 01:31:51;;;;;;;;;9.00;9.00;;;;;;;;5170836;28;8894;-71
2022/05/13 01:34:23;;;;;;;;;9.60;9.60;;;;;;;;5151750;28;8792;-71
2022/05/13 01:36:55;;;;;;;;;13.20;12.80;;;;;;;;5151927;28;8792;-72
2022/05/13 01:39:25;;;;;;;;;17.00;15.80;;;;;;;;5185577;28;8911;-72
2022/05/13 01:42:15;;;;;;;;;14.60;14.60;;;;;;;;5184216;28;8813;-70
2022/05/13 01:44:45;;;;;;;;;18.40;18.40;;;;;;;;5182087;28;8798;-71
2022/05/13 01:47:16;;;;;;;;;25.25;24.00;;;;;;;;5190082;28;8813;-71
2022/05/13 01:49:48;;;;;;;;;21.50;21.50;;;;;;;;5193140;28;10889;-71
2022/05/13 01:52:37;;;;;;;;;23.40;23.00;;;;;;;;5195946;28;11455;-71
2022/05/13 01:55:09;;;;;;;;;18.25;18.25;;;;;;;;5192119;28;8787;-71
2022/05/13 01:57:39;;;;;;;;;12.00;12.00;;;;;;;;5191172;28;11509;-71
2022/05/13 02:00:11;;;;;;;;;11.00;11.00;;;;;;;;5187490;28;8803;-71
2022/05/13 02:05:34;;;;;;;;;10.00;10.00;;;;;;;;5205369;28;8781;-70
2022/05/13 02:08:06;;;;;;;;;10.20;10.20;;;;;;;;5205171;28;8794;-69
2022/05/13 02:10:38;;;;;;;;;10.60;10.60;;;;;;;;5177467;28;8820;-68
2022/05/13 02:13:12;;;;;;;;;9.00;9.00;;;;;;;;5182487;28;8819;-70
2022/05/13 02:15:43;;;;;;;;;6.00;6.00;;;;;;;;5205087;28;8803;-68
2022/05/13 02:18:14;;;;;;;;;8.25;8.25;;;;;;;;5170900;28;8787;-69
2022/05/13 02:20:45;;;;;;;;;8.00;8.00;;;;;;;;5204902;28;11125;-69
2022/05/13 02:23:20;;;;;;;;;6.80;6.80;;;;;;;;5182732;28;8794;-70
2022/05/13 02:25:56;;;;;;;;;8.20;8.20;;;;;;;;5147724;28;8816;-69
2022/05/13 02:28:30;;;;;;;;;6.20;6.20;;;;;;;;5182930;28;8805;-69
2022/05/13 02:31:01;;;;;;;;;5.60;5.60;;;;;;;;5167125;28;8830;-70
2022/05/13 02:33:33;;;;;;;;;9.00;9.00;;;;;;;;5153595;28;9714;-71
2022/05/13 02:36:04;;;;;;;;;10.80;10.80;;;;;;;;5170142;28;8851;-72
2022/05/13 02:38:35;;;;;;;;;8.00;8.00;;;;;;;;5198783;28;8883;-71
2022/05/13 02:41:12;;;;;;;;;10.40;10.40;;;;;;;;5193544;28;8807;-70
2022/05/13 02:43:45;;;;;;;;;27.60;26.80;;;;;;;;5170911;28;8785;-70
2022/05/13 02:46:19;;;;;;;;;17.00;17.00;;;;;;;;5205049;28;8799;-70
2022/05/13 02:49:08;;;;;;;;;16.00;16.00;;;;;;;;5186912;28;8789;-70
2022/05/13 02:51:40;;;;;;;;;14.00;14.00;;;;;;;;5186671;28;8796;-71
2022/05/13 02:54:11;;;;;;;;;14.60;14.60;;;;;;;;5170570;28;8793;-70
2022/05/13 02:56:42;;;;;;;;;9.20;9.20;;;;;;;;5167949;28;9723;-70
2022/05/13 02:59:13;;;;;;;;;12.40;12.40;;;;;;;;5184956;28;8922;-72
2022/05/13 03:01:44;;;;;;;;;17.40;17.40;;;;;;;;5170302;28;8825;-71
2022/05/13 03:04:33;;;;;;;;;31.60;28.40;;;;;;;;5187002;28;8765;-69
2022/05/13 03:07:07;;;;;;;;;7.60;7.60;;;;;;;;5187149;28;8761;-69
2022/05/13 03:09:38;;;;;;;;;10.80;10.80;;;;;;;;5170397;28;8824;-69
2022/05/13 03:12:11;;;;;;;;;17.50;17.00;;;;;;;;5196300;28;8793;-71
2022/05/13 03:14:42;;;;;;;;;17.20;17.20;;;;;;;;5170252;28;10275;-70
2022/05/13 03:17:13;;;;;;;;;12.25;11.75;;;;;;;;5170329;28;8823;-69
2022/05/13 03:19:44;;;;;;;;;25.00;23.00;;;;;;;;5176814;28;8797;-71
2022/05/13 03:22:16;;;;;;;;;32.50;31.00;;;;;;;;5172990;28;8922;-69
2022/05/13 03:24:47;;;;;;;;;49.60;42.80;;;;;;;;5198667;28;11601;-71
2022/05/13 03:27:18;;;;;;;;;14.40;14.40;;;;;;;;5166071;28;8775;-70
2022/05/13 03:29:49;;;;;;;;;9.20;9.20;;;;;;;;5165904;28;8834;-68
2022/05/13 03:32:21;;;;;;;;;5.80;5.80;;;;;;;;5183991;28;8865;-68
2022/05/13 03:34:52;;;;;;;;;3.00;3.00;;;;;;;;5183673;28;8813;-70
2022/05/13 03:37:23;;;;;;;;;42.20;38.00;;;;;;;;5183656;28;8791;-70
2022/05/13 03:39:54;;;;;;;;;28.60;28.00;;;;;;;;5165623;28;8861;-70
2022/05/13 03:42:25;;;;;;;;;9.00;9.00;;;;;;;;5137648;28;8826;-70
2022/05/13 03:44:56;;;;;;;;;5.00;5.00;;;;;;;;5137399;28;8763;-68
2022/05/13 03:47:27;;;;;;;;;6.00;6.00;;;;;;;;5170001;28;8785;-69
2022/05/13 03:49:58;;;;;;;;;3.50;3.50;;;;;;;;5169568;28;8815;-69
2022/05/13 03:52:30;;;;;;;;;7.80;7.80;;;;;;;;5153911;28;10638;-69
2022/05/13 03:55:02;;;;;;;;;11.20;11.20;;;;;;;;5169147;28;8815;-70
2022/05/13 03:57:33;;;;;;;;;11.40;11.40;;;;;;;;5187789;28;8894;-68
2022/05/13 04:00:24;;;;;;;;;6.60;6.60;;;;;;;;5206946;28;8878;-67
2022/05/13 04:02:55;;;;;;;;;3.40;3.40;;;;;;;;5206104;28;8792;-67
2022/05/13 04:11:05;;;;;;;;;3.50;3.50;;;;;;;;5197264;28;8783;-68
2022/05/13 04:16:25;;;;;;;;;2.50;2.50;;;;;;;;5206710;28;8780;-73
2022/05/13 04:18:58;;;;;;;;;3.00;3.00;;;;;;;;5185561;28;8779;-71
2022/05/13 04:21:32;;;;;;;;;3.25;3.25;;;;;;;;5151137;28;8795;-72
2022/05/13 04:24:07;;;;;;;;;9.00;9.00;;;;;;;;5183389;28;8771;-71
2022/05/13 04:26:38;;;;;;;;;5.00;5.00;;;;;;;;5151084;28;8814;-70
2022/05/13 04:29:09;;;;;;;;;5.20;5.20;;;;;;;;5182704;28;8850;-70
2022/05/13 04:31:42;;;;;;;;;4.40;4.40;;;;;;;;5166022;28;8837;-69
2022/05/13 04:34:33;;;;;;;;;3.40;3.40;;;;;;;;5168520;28;9938;-69
2022/05/13 04:37:04;;;;;;;;;11.80;11.60;;;;;;;;5155050;28;8884;-70
2022/05/13 04:39:35;;;;;;;;;5.40;5.40;;;;;;;;5185336;28;8933;-71
2022/05/13 04:45:14;;;;;;;;;3.75;3.75;;;;;;;;5168792;28;8937;-71
2022/05/13 04:50:35;;;;;;;;;6.00;6.00;;;;;;;;5192555;28;8915;-68
2022/05/13 04:53:26;;;;;;;;;7.00;7.00;;;;;;;;5180046;28;8776;-68
2022/05/13 04:55:58;;;;;;;;;2.50;2.50;;;;;;;;5168840;28;8783;-68
2022/05/13 04:58:29;;;;;;;;;8.20;8.20;;;;;;;;5185132;28;8783;-69
2022/05/13 05:01:02;;;;;;;;;20.40;19.40;;;;;;;;5168508;28;8803;-68
2022/05/13 05:03:35;;;;;;;;;10.40;10.40;;;;;;;;5168722;28;9510;-68
2022/05/13 05:06:07;;;;;;;;;2.50;2.50;;;;;;;;5195104;28;8796;-69
2022/05/13 05:08:38;;;;;;;;;5.00;5.00;;;;;;;;5188690;28;8804;-68
2022/05/13 05:11:10;;;;;;;;;3.25;3.25;;;;;;;;5202415;28;8815;-71
2022/05/13 05:13:43;;;;;;;;;10.40;10.40;;;;;;;;5183998;28;8914;-69
2022/05/13 05:16:22;;;;;;;;;12.80;12.80;;;;;;;;5171615;28;8804;-69
2022/05/13 05:18:53;;;;;;;;;3.80;3.80;;;;;;;;5170514;28;8811;-68
2022/05/13 05:21:24;;;;;;;;;1.25;1.25;;;;;;;;5171717;28;8813;-70
2022/05/13 05:23:55;;;;;;;;;4.00;4.00;;;;;;;;5206869;28;8789;-68
2022/05/13 05:26:26;;;;;;;;;6.00;5.00;;;;;;;;5170850;28;8789;-68
2022/05/13 05:28:57;;;;;;;;;33.80;32.00;;;;;;;;5181079;28;8804;-68
2022/05/13 05:31:28;;;;;;;;;10.80;10.20;;;;;;;;5151590;28;8840;-68
2022/05/13 05:33:59;;;;;;;;;4.00;4.00;;;;;;;;5167911;28;8776;-68
2022/05/13 05:36:30;;;;;;;;;7.75;7.75;;;;;;;;5185332;28;8773;-68
2022/05/13 05:39:01;;;;;;;;;11.80;11.80;;;;;;;;5167975;28;8871;-69
2022/05/13 05:41:32;;;;;;;;;87.60;64.40;;;;;;;;5135432;28;8797;-70
2022/05/13 05:44:03;;;;;;;;;12.25;12.25;;;;;;;;5158999;28;8786;-68
2022/05/13 05:46:34;;;;;;;;;5.50;5.50;;;;;;;;5163491;28;8778;-68
2022/05/13 05:49:05;;;;;;;;;11.00;11.00;;;;;;;;5171966;28;8767;-68
2022/05/13 05:51:37;;;;;;;;;4.25;4.25;;;;;;;;5164667;28;11507;-68
2022/05/13 05:57:16;;;;;;;;;14.20;14.20;;;;;;;;5131980;28;8795;-68
2022/05/13 05:59:48;;;;;;;;;1.00;1.00;;;;;;;;5147554;28;8763;-68
2022/05/13 06:02:19;;;;;;;;;7.75;7.75;;;;;;;;5147057;28;8811;-68
2022/05/13 06:04:50;;;;;;;;;6.33;6.33;;;;;;;;5146983;28;8771;-68
2022/05/13 06:07:21;;;;;;;;;3.00;3.00;;;;;;;;5166469;28;9618;-68
2022/05/13 06:09:52;;;;;;;;;1.75;1.75;;;;;;;;5135280;28;8765;-68
2022/05/13 06:12:23;;;;;;;;;1.50;1.50;;;;;;;;5166020;28;8914;-68
2022/05/13 06:14:54;;;;;;;;;1.25;1.25;;;;;;;;5165649;28;9002;-68
2022/05/13 06:17:25;;;;;;;;;0.00;0.00;;;;;;;;5184851;28;9511;-69
2022/05/13 06:19:56;;;;;;;;;1.00;1.00;;;;;;;;5151014;28;10637;-68
2022/05/13 06:22:27;;;;;;;;;2.00;2.00;;;;;;;;5184528;28;10085;-69
2022/05/13 06:24:58;;;;;;;;;2.00;2.00;;;;;;;;5184530;28;8765;-69
2022/05/13 06:27:28;;;;;;;;;11.00;11.00;;;;;;;;5158730;28;8810;-68
2022/05/13 06:29:59;;;;;;;;;5.00;5.00;;;;;;;;5183291;28;8801;-70
2022/05/13 06:32:30;;;;;;;;;10.50;10.50;;;;;;;;5184568;28;8777;-70
2022/05/13 06:35:02;;;;;;;;;1.67;1.67;;;;;;;;5184739;28;8826;-68
2022/05/13 06:37:33;;;;;;;;;1.75;1.75;;;;;;;;5220886;28;11372;-68
2022/05/13 06:40:05;;;;;;;;;1.00;1.00;;;;;;;;5204785;28;9568;-68
2022/05/13 06:42:36;;;;;;;;;14.00;14.00;;;;;;;;5203724;28;8755;-69
2022/05/13 06:45:07;;;;;;;;;4.00;4.00;;;;;;;;5187283;28;8797;-69
2022/05/13 06:47:38;;;;;;;;;3.75;3.50;;;;;;;;5203778;28;8783;-67
2022/05/13 06:50:11;;;;;;;;;2.33;2.33;;;;;;;;5202756;28;8823;-68
2022/05/13 06:52:43;;;;;;;;;6.75;6.75;;;;;;;;5204602;28;10243;-69
2022/05/13 06:55:15;;;;;;;;;5.75;5.75;;;;;;;;5170448;28;8829;-69
2022/05/13 06:57:46;;;;;;;;;0.00;0.00;;;;;;;;5187097;28;8787;-69
2022/05/13 07:00:17;;;;;;;;;3.00;3.00;;;;;;;;5203421;28;8806;-68
2022/05/13 07:02:48;;;;;;;;;4.00;4.00;;;;;;;;5203728;28;8762;-69
2022/05/13 07:05:20;;;;;;;;;3.33;3.33;;;;;;;;5186718;28;8818;-68
2022/05/13 07:07:51;;;;;;;;;4.25;4.25;;;;;;;;5168662;28;9403;-68
2022/05/13 07:10:22;;;;;;;;;2.75;2.75;;;;;;;;5194234;28;8772;-69
2022/05/13 07:12:53;;;;;;;;;3.33;3.33;;;;;;;;5168549;28;8808;-68
2022/05/13 07:15:24;;;;;;;;;2.00;2.00;;;;;;;;5189186;28;11474;-68
2022/05/13 07:17:55;;;;;;;;;3.00;3.00;;;;;;;;5184928;28;8767;-68
2022/05/13 07:20:27;;;;;;;;;3.00;3.00;;;;;;;;5179219;28;8832;-69
2022/05/13 07:22:59;;;;;;;;;3.00;3.00;;;;;;;;5169058;28;11365;-69
2022/05/13 07:25:31;;;;;;;;;16.00;15.67;;;;;;;;5169858;28;8825;-69
2022/05/13 07:28:02;;;;;;;;;7.00;7.00;;;;;;;;5184805;28;9462;-68
2022/05/13 07:30:54;;;;;;;;;7.00;7.00;;;;;;;;5186475;28;8906;-71
2022/05/13 07:33:28;;;;;;;;;5.50;5.50;;;;;;;;5169390;28;8883;-70
2022/05/13 07:35:59;;;;;;;;;3.00;3.00;;;;;;;;5169437;28;8816;-69
2022/05/13 07:41:37;;;;;;;;;1.25;1.25;;;;;;;;5188065;28;8905;-68
2022/05/13 07:44:08;;;;;;;;;9.00;9.00;;;;;;;;5186763;28;8784;-68
2022/05/13 07:46:39;;;;;;;;;2.00;2.00;;;;;;;;5153252;28;8804;-71
2022/05/13 07:49:10;;;;;;;;;6.00;6.00;;;;;;;;5183091;28;11451;-68
2022/05/13 07:51:41;;;;;;;;;3.00;3.00;;;;;;;;5194566;28;8793;-69
2022/05/13 07:54:12;;;;;;;;;4.00;4.00;;;;;;;;5169439;28;8826;-69
2022/05/13 07:56:43;;;;;;;;;3.50;3.50;;;;;;;;5169202;28;11470;-68
2022/05/13 07:59:14;;;;;;;;;1.67;1.67;;;;;;;;5186591;28;9535;-69
2022/05/13 08:01:45;;;;;;;;;1.00;1.00;;;;;;;;5169190;28;9571;-69
2022/05/13 08:04:16;;;;;;;;;2.00;2.00;;;;;;;;5186603;28;8824;-69
2022/05/13 08:06:47;;;;;;;;;5.00;5.00;;;;;;;;5186764;28;10185;-69
2022/05/13 08:09:18;;;;;;;;;1.00;1.00;;;;;;;;5198761;28;11574;-69
2022/05/13 08:12:07;;;;;;;;;17.20;17.20;;;;;;;;5202894;28;8834;-69
2022/05/13 08:14:38;;;;;;;;;2.50;2.50;;;;;;;;5186979;28;8850;-71
2022/05/13 08:17:09;;;;;;;;;7.00;7.00;;;;;;;;5170371;28;8823;-71
2022/05/13 08:19:40;;;;;;;;;0.00;0.00;;;;;;;;5189035;28;8824;-70
2022/05/13 08:22:11;;;;;;;;;1.00;1.00;;;;;;;;5179198;28;8829;-71
2022/05/13 08:24:42;;;;;;;;;16.25;14.75;;;;;;;;5170200;28;11418;-71
2022/05/13 08:27:13;;;;;;;;;20.00;19.75;;;;;;;;5166352;28;8884;-73
2022/05/13 08:29:43;;;;;;;;;36.25;33.25;;;;;;;;5206635;28;11607;-72
2022/05/13 08:32:14;;;;;;;;;17.67;17.33;;;;;;;;5189637;28;9124;-72
2022/05/13 08:35:04;;;;;;;;;12.60;11.80;;;;;;;;5207139;28;8793;-72
2022/05/13 08:38:01;;;;;;;;;4.50;4.50;;;;;;;;5189363;28;8797;-72
2022/05/13 08:40:32;;;;;;;;;4.75;4.75;;;;;;;;5201708;28;8817;-72
2022/05/13 08:43:12;;;;;;;;;1.75;1.75;;;;;;;;5207080;28;8807;-71
2022/05/13 08:45:49;;;;;;;;;4.75;4.75;;;;;;;;5169336;28;8832;-72
2022/05/13 08:48:27;;;;;;;;;8.25;8.25;;;;;;;;5205060;28;8867;-71
2022/05/13 08:50:58;;;;;;;;;36.20;33.60;;;;;;;;5166841;28;8803;-71
2022/05/13 08:53:36;;;;;;;;;18.40;18.40;;;;;;;;5150624;28;8885;-71
2022/05/13 08:56:09;;;;;;;;;6.00;6.00;;;;;;;;5134828;28;8807;-71
2022/05/13 08:58:45;;;;;;;;;7.00;7.00;;;;;;;;5182527;28;8870;-73
2022/05/13 09:01:22;;;;;;;;;3.00;3.00;;;;;;;;5204822;28;8824;-72
2022/05/13 09:03:57;;;;;;;;;1.00;1.00;;;;;;;;5201104;28;8866;-72
2022/05/13 09:06:39;;;;;;;;;1.75;1.75;;;;;;;;5201909;28;8809;-73
2022/05/13 09:09:11;;;;;;;;;2.00;2.00;;;;;;;;5170329;28;8956;-73
2022/05/13 09:11:54;;;;;;;;;4.25;4.25;;;;;;;;5169221;28;8893;-72
2022/05/13 09:14:31;;;;;;;;;27.20;26.40;;;;;;;;5153160;28;8915;-70
2022/05/13 09:17:14;;;;;;;;;11.25;11.25;;;;;;;;5152007;28;9567;-71
2022/05/13 09:20:03;;;;;;;;;3.50;3.50;;;;;;;;5166862;28;8833;-70
2022/05/13 09:22:36;;;;;;;;;5.00;5.00;;;;;;;;5181193;28;8815;-70
2022/05/13 09:25:13;;;;;;;;;4.50;4.50;;;;;;;;5182661;28;8814;-71
2022/05/13 09:27:49;;;;;;;;;6.00;6.00;;;;;;;;5166609;28;8796;-70
2022/05/13 09:30:21;;;;;;;;;3.75;3.75;;;;;;;;5165761;28;8831;-71
2022/05/13 09:32:52;;;;;;;;;3.50;3.50;;;;;;;;5149812;28;8795;-71
2022/05/13 09:35:35;;;;;;;;;3.00;3.00;;;;;;;;5182652;28;8809;-71
2022/05/13 09:38:27;;;;;;;;;21.75;21.75;;;;;;;;5176484;28;8795;-72
2022/05/13 09:41:00;;;;;;;;;27.40;27.40;;;;;;;;5170596;28;8827;-71
2022/05/13 09:43:31;;;;;;;;;29.00;27.00;;;;;;;;5206786;28;8806;-70
2022/05/13 09:46:04;;;;;;;;;28.80;27.80;;;;;;;;5173655;28;8807;-71
2022/05/13 09:48:37;;;;;;;;;10.00;10.00;;;;;;;;5189881;28;8793;-71
2022/05/13 09:51:37;;;;;;;;;9.00;9.00;;;;;;;;5185717;28;8822;-70
2022/05/13 09:54:16;;;;;;;;;6.50;6.50;;;;;;;;5148780;28;8805;-70
2022/05/13 09:56:48;;;;;;;;;8.00;8.00;;;;;;;;5168987;28;8797;-71
2022/05/13 09:59:21;;;;;;;;;17.75;17.75;;;;;;;;5195008;28;8870;-70
2022/05/13 10:01:53;;;;;;;;;3.25;3.25;;;;;;;;5202502;28;8808;-70
2022/05/13 10:04:25;;;;;;;;;3.00;3.00;;;;;;;;5183434;28;8826;-70
2022/05/13 10:07:08;;;;;;;;;2.25;2.25;;;;;;;;5179560;28;8776;-73
2022/05/13 10:15:45;;;;;;;;;1.50;1.50;;;;;;;;5149381;28;9565;-70
2022/05/13 10:18:19;;;;;;;;;1.00;1.00;;;;;;;;5181999;28;9638;-71
2022/05/13 10:20:52;;;;;;;;;2.25;2.25;;;;;;;;5149247;28;8843;-71
2022/05/13 10:23:39;;;;;;;;;2.00;2.00;;;;;;;;5193771;28;8835;-73
2022/05/13 10:26:11;;;;;;;;;8.00;8.00;;;;;;;;5168100;28;8806;-72
2022/05/13 10:28:52;;;;;;;;;4.00;4.00;;;;;;;;5196514;28;8807;-70
2022/05/13 10:31:25;;;;;;;;;3.00;3.00;;;;;;;;5182775;28;8859;-70
2022/05/13 10:34:08;;;;;;;;;3.00;3.00;;;;;;;;5192022;28;9585;-71
2022/05/13 10:36:54;;;;;;;;;4.50;4.50;;;;;;;;5165987;28;8941;-71
2022/05/13 10:39:34;;;;;;;;;2.75;2.75;;;;;;;;5167292;28;8823;-71
2022/05/13 10:42:09;;;;;;;;;1.75;1.75;;;;;;;;5172208;28;8820;-70
2022/05/13 10:44:59;;;;;;;;;2.00;2.00;;;;;;;;5190908;28;8765;-71
2022/05/13 10:47:37;;;;;;;;;2.75;2.75;;;;;;;;5225743;28;8882;-71
2022/05/13 10:50:11;;;;;;;;;3.00;3.00;;;;;;;;5185924;28;9570;-70
2022/05/13 10:52:49;;;;;;;;;4.75;4.75;;;;;;;;5189532;28;8813;-71
2022/05/13 10:55:20;;;;;;;;;3.00;3.00;;;;;;;;5174322;28;8839;-71
2022/05/13 10:58:11;;;;;;;;;2.00;2.00;;;;;;;;5190159;28;9523;-71
2022/05/13 11:00:56;;;;;;;;;2.50;2.50;;;;;;;;5166501;28;9587;-70
2022/05/13 11:03:34;;;;;;;;;3.50;3.50;;;;;;;;5205971;28;8805;-70
2022/05/13 11:06:21;;;;;;;;;1.00;1.00;;;;;;;;5196753;28;8819;-71
2022/05/13 11:08:55;;;;;;;;;0.00;0.00;;;;;;;;5169966;28;9498;-72
2022/05/13 11:11:26;;;;;;;;;3.00;3.00;;;;;;;;5171630;28;8783;-72
2022/05/13 11:14:12;;;;;;;;;3.75;3.75;;;;;;;;5180090;28;8865;-72
2022/05/13 11:16:52;;;;;;;;;8.25;8.25;;;;;;;;5188307;28;8794;-72
2022/05/13 11:19:32;;;;;;;;;5.50;5.50;;;;;;;;5194286;28;8881;-70
2022/05/13 11:22:12;;;;;;;;;9.80;9.80;;;;;;;;5165090;28;8807;-72
2022/05/13 11:28:02;;;;;;;;;1.75;1.75;;;;;;;;5203879;28;8785;-71
2022/05/13 11:30:52;;;;;;;;;1.25;1.25;;;;;;;;5197466;28;8840;-71
2022/05/13 11:33:41;;;;;;;;;1.33;1.33;;;;;;;;5208331;28;8899;-71
2022/05/13 11:36:20;;;;;;;;;1.50;1.50;;;;;;;;5208354;28;11436;-71
2022/05/13 11:38:57;;;;;;;;;6.00;6.00;;;;;;;;5208480;28;8882;-71
2022/05/13 11:41:35;;;;;;;;;1.75;1.75;;;;;;;;5189861;28;8886;-71
2022/05/13 11:44:06;;;;;;;;;2.00;2.00;;;;;;;;5174312;28;8797;-70
2022/05/13 11:46:48;;;;;;;;;2.00;2.00;;;;;;;;5190670;28;8776;-71
2022/05/13 11:49:30;;;;;;;;;3.00;3.00;;;;;;;;5182980;28;9531;-71
2022/05/13 11:52:13;;;;;;;;;3.00;3.00;;;;;;;;5173971;28;8786;-71
2022/05/13 11:54:44;;;;;;;;;2.50;2.50;;;;;;;;5172954;28;8809;-72
2022/05/13 11:57:24;;;;;;;;;3.50;3.50;;;;;;;;5189796;28;8801;-72
2022/05/13 11:59:56;;;;;;;;;1.75;1.75;;;;;;;;5205785;28;8799;-68
2022/05/13 12:02:30;;;;;;;;;3.00;3.00;;;;;;;;5173063;28;9567;-70
2022/05/13 12:05:04;;;;;;;;;4.00;4.00;;;;;;;;5159064;28;9546;-72
2022/05/13 12:08:08;;;;;;;;;1.00;1.00;;;;;;;;5183155;28;8772;-71
2022/05/13 12:11:02;;;;;;;;;4.00;4.00;;;;;;;;5169734;28;8799;-70
2022/05/13 12:13:47;;;;;;;;;18.20;18.20;;;;;;;;5166439;28;8796;-71
2022/05/13 12:16:58;;;;;;;;;8.00;8.00;;;;;;;;5176832;28;8921;-71
2022/05/13 12:19:52;;;;;;;;;7.25;7.25;;;;;;;;5189940;28;8790;-71
2022/05/13 12:22:29;;;;;;;;;3.50;3.50;;;;;;;;5146727;28;8841;-71
2022/05/13 12:25:12;;;;;;;;;2.00;2.00;;;;;;;;5193739;28;8849;-70
2022/05/13 12:28:03;;;;;;;;;2.75;2.75;;;;;;;;5153131;28;9572;-71
2022/05/13 12:30:41;;;;;;;;;1.25;1.25;;;;;;;;5144560;28;8975;-72
2022/05/13 12:33:24;;;;;;;;;1.00;1.00;;;;;;;;5181346;28;8800;-71
2022/05/13 12:39:40;;;;;;;;;3.50;3.50;;;;;;;;5101086;28;8803;-71
2022/05/13 12:42:12;;;;;;;;;4.50;4.50;;;;;;;;5156015;28;8829;-72
2022/05/13 12:44:58;;;;;;;;;2.75;2.75;;;;;;;;5172624;28;8797;-71
2022/05/13 12:47:30;;;;;;;;;3.00;3.00;;;;;;;;5184745;28;9548;-71
2022/05/13 12:50:26;;;;;;;;;6.50;6.50;;;;;;;;5199500;28;8816;-71
2022/05/13 12:53:28;;;;;;;;;5.00;5.00;;;;;;;;5188477;28;8887;-68
2022/05/13 12:56:21;;;;;;;;;3.50;3.50;;;;;;;;5176489;28;8863;-70
2022/05/13 12:58:55;;;;;;;;;3.00;3.00;;;;;;;;5185444;28;8817;-71
2022/05/13 13:01:27;;;;;;;;;3.50;3.50;;;;;;;;5203788;28;8836;-71
2022/05/13 13:03:58;;;;;;;;;2.75;2.75;;;;;;;;5188054;28;9693;-71
2022/05/13 13:06:38;;;;;;;;;4.75;4.75;;;;;;;;5188328;28;8783;-72
2022/05/13 13:09:35;;;;;;;;;10.50;10.50;;;;;;;;5188425;28;8798;-71
2022/05/13 13:12:10;;;;;;;;;5.25;5.25;;;;;;;;5165729;28;8882;-71
2022/05/13 13:14:41;;;;;;;;;5.25;5.25;;;;;;;;5187090;28;8824;-72
2022/05/13 13:17:30;;;;;;;;;1.00;1.00;;;;;;;;5200347;28;9003;-71
2022/05/13 13:20:04;;;;;;;;;4.00;4.00;;;;;;;;5163685;28;8805;-71
2022/05/13 13:22:59;;;;;;;;;2.50;2.50;;;;;;;;5184919;28;8812;-71
2022/05/13 13:25:32;;;;;;;;;2.75;2.75;;;;;;;;5188610;28;8874;-70
2022/05/13 13:28:09;;;;;;;;;1.50;1.50;;;;;;;;5195935;28;8905;-70
2022/05/13 13:30:44;;;;;;;;;2.50;2.50;;;;;;;;5187157;28;8856;-70
2022/05/13 13:33:15;;;;;;;;;24.60;23.20;;;;;;;;5191582;28;8787;-71
2022/05/13 13:35:48;;;;;;;;;5.00;5.00;;;;;;;;5176430;28;8784;-69
2022/05/13 13:38:19;;;;;;;;;3.50;3.50;;;;;;;;5191903;28;11168;-70
2022/05/13 13:40:50;;;;;;;;;7.25;7.00;;;;;;;;5225992;28;9235;-71
2022/05/13 13:43:22;;;;;;;;;9.00;9.00;;;;;;;;5226121;28;8779;-70
2022/05/13 13:45:55;;;;;;;;;10.00;10.00;;;;;;;;5188793;28;8783;-71
2022/05/13 13:48:48;;;;;;;;;9.00;9.00;;;;;;;;5208269;28;8779;-71
2022/05/13 13:51:24;;;;;;;;;7.25;7.25;;;;;;;;5225878;28;9008;-71
2022/05/13 13:53:56;;;;;;;;;2.00;2.00;;;;;;;;5208115;28;8786;-71
2022/05/13 13:56:53;;;;;;;;;1.75;1.75;;;;;;;;5208200;28;9541;-71
2022/05/13 13:59:34;;;;;;;;;7.75;7.00;;;;;;;;5191956;28;8779;-72
2022/05/13 14:02:08;;;;;;;;;15.20;15.00;;;;;;;;5174110;28;9518;-71
2022/05/13 14:04:48;;;;;;;;;8.50;8.50;;;;;;;;5191041;28;8886;-71
2022/05/13 14:07:19;;;;;;;;;2.75;2.75;;;;;;;;5171263;28;9514;-71
2022/05/13 14:09:51;;;;;;;;;5.50;5.50;;;;;;;;5207889;28;8808;-71
2022/05/13 14:12:22;;;;;;;;;14.40;14.20;;;;;;;;5207840;28;9501;-72
2022/05/13 14:14:55;;;;;;;;;9.00;9.00;;;;;;;;5204506;28;8774;-71
2022/05/13 14:17:28;;;;;;;;;7.25;7.25;;;;;;;;5191862;28;8787;-72
2022/05/13 14:20:09;;;;;;;;;4.25;4.25;;;;;;;;5191148;28;8921;-73
2022/05/13 14:23:05;;;;;;;;;6.75;6.25;;;;;;;;5225540;28;8767;-74
2022/05/13 14:25:55;;;;;;;;;8.75;8.75;;;;;;;;5167247;28;8818;-70
2022/05/13 14:28:36;;;;;;;;;7.25;7.00;;;;;;;;5178446;28;8809;-71
2022/05/13 14:31:14;;;;;;;;;2.50;2.50;;;;;;;;5183573;28;9568;-72
2022/05/13 14:34:11;;;;;;;;;23.20;22.40;;;;;;;;5181842;28;8810;-72
2022/05/13 14:36:44;;;;;;;;;4.25;4.25;;;;;;;;5168957;28;8790;-73
2022/05/13 14:42:14;;;;;;;;;6.00;5.75;;;;;;;;5168540;28;8892;-72
2022/05/13 14:44:50;;;;;;;;;6.25;6.25;;;;;;;;5169027;28;9690;-72
2022/05/13 14:47:23;;;;;;;;;6.25;6.25;;;;;;;;5169048;28;8783;-75
2022/05/13 14:49:54;;;;;;;;;7.00;7.00;;;;;;;;5180980;28;8816;-73
2022/05/13 14:52:27;;;;;;;;;7.00;5.67;;;;;;;;5148023;28;8785;-72
2022/05/13 14:54:59;;;;;;;;;7.75;7.75;;;;;;;;5185006;28;8802;-72
2022/05/13 14:57:36;;;;;;;;;9.20;8.40;;;;;;;;5185099;28;8962;-73
2022/05/13 15:00:09;;;;;;;;;8.00;7.50;;;;;;;;5185153;28;8802;-73
2022/05/13 15:02:45;;;;;;;;;4.75;4.75;;;;;;;;5168338;28;8925;-75
2022/05/13 15:05:19;;;;;;;;;4.75;4.75;;;;;;;;5161279;28;8928;-70
2022/05/13 15:08:28;;;;;;;;;3.75;3.75;;;;;;;;5185057;28;8806;-72
2022/05/13 15:10:59;;;;;;;;;14.40;14.40;;;;;;;;5169191;28;8909;-71
2022/05/13 15:13:30;;;;;;;;;7.00;7.00;;;;;;;;5184410;28;10035;-72
2022/05/13 15:16:01;;;;;;;;;42.75;36.75;;;;;;;;5168378;28;11375;-73
2022/05/13 15:18:33;;;;;;;;;12.20;12.20;;;;;;;;5168469;28;8795;-73
2022/05/13 15:21:04;;;;;;;;;15.00;15.00;;;;;;;;5149713;28;9574;-72
2022/05/13 15:23:38;;;;;;;;;12.20;11.80;;;;;;;;5168379;28;9616;-71
2022/05/13 15:26:30;;;;;;;;;10.80;10.80;;;;;;;;5190978;28;8861;-72
2022/05/13 15:29:03;;;;;;;;;9.20;9.20;;;;;;;;5172489;28;8840;-72
2022/05/13 15:31:36;;;;;;;;;9.00;9.00;;;;;;;;5164111;28;8832;-71
2022/05/13 15:34:25;;;;;;;;;8.80;8.80;;;;;;;;5150526;28;8792;-71
2022/05/13 15:37:05;;;;;;;;;8.00;8.00;;;;;;;;5166505;28;8846;-71
2022/05/13 15:39:36;;;;;;;;;8.60;8.60;;;;;;;;5166393;28;8804;-72
2022/05/13 15:42:08;;;;;;;;;13.20;13.20;;;;;;;;5164105;28;9036;-71
2022/05/13 15:44:39;;;;;;;;;13.20;13.00;;;;;;;;5163420;28;8799;-71
2022/05/13 15:47:14;;;;;;;;;9.50;9.50;;;;;;;;5166983;28;8816;-71
2022/05/13 15:52:40;;;;;;;;;13.60;13.60;;;;;;;;5162147;28;8833;-72
2022/05/13 15:55:12;;;;;;;;;12.60;12.60;;;;;;;;5180597;28;8863;-72
2022/05/13 15:57:47;;;;;;;;;18.20;18.20;;;;;;;;5179859;28;8791;-73
2022/05/13 16:00:20;;;;;;;;;9.40;9.40;;;;;;;;5163860;28;8834;-72
2022/05/13 16:02:53;;;;;;;;;14.80;14.80;;;;;;;;5163847;28;9001;-72
2022/05/13 16:05:25;;;;;;;;;17.80;17.80;;;;;;;;5183608;28;8923;-72
2022/05/13 16:07:56;;;;;;;;;12.20;12.20;;;;;;;;5184227;28;8784;-72
2022/05/13 16:10:27;;;;;;;;;15.80;15.80;;;;;;;;5177734;28;8815;-71
2022/05/13 16:13:05;;;;;;;;;14.20;14.20;;;;;;;;5161063;28;8800;-73
2022/05/13 16:15:44;;;;;;;;;13.20;13.00;;;;;;;;5152885;28;8793;-70
2022/05/13 16:18:17;;;;;;;;;11.40;10.80;;;;;;;;5154027;28;8822;-71
2022/05/13 16:20:49;;;;;;;;;9.80;9.80;;;;;;;;5169421;28;8839;-71